createdAt,value
2023-04-04T00:00:28.751Z,15.85
2023-04-04T00:03:31.872Z,15.82
2023-04-04T00:06:34.331Z,15.88
2023-04-04T00:09:36.918Z,15.75
2023-04-04T00:12:39.376Z,15.83
2023-04-04T00:15:41.723Z,15.75
2023-04-04T00:18:44.062Z,15.77
2023-04-04T00:21:46.494Z,15.69
2023-04-04T00:24:49.124Z,15.75
2023-04-04T00:27:51.641Z,15.72
2023-04-04T00:30:54.817Z,15.75
2023-04-04T00:33:57.150Z,15.71
2023-04-04T00:36:59.509Z,15.66
2023-04-04T00:40:04.243Z,15.69
2023-04-04T00:43:07.663Z,15.71
2023-04-04T00:46:11.546Z,15.67
2023-04-04T00:49:13.998Z,15.65
2023-04-04T00:52:16.417Z,15.63
2023-04-04T00:55:19.204Z,15.52
2023-04-04T00:58:21.700Z,15.55
2023-04-04T01:01:25.953Z,15.59
2023-04-04T01:04:29.574Z,15.50
2023-04-04T01:07:32.648Z,15.55
2023-04-04T01:10:35.712Z,15.48
2023-04-04T01:13:38.324Z,15.55
2023-04-04T01:16:41.594Z,15.54
2023-04-04T01:19:48.578Z,15.50
2023-04-04T01:22:55.776Z,15.49
2023-04-04T01:26:05.864Z,15.49
2023-04-04T01:29:09.628Z,15.49
2023-04-04T01:32:28.376Z,15.46
2023-04-04T01:35:33.630Z,15.45
2023-04-04T01:38:50.299Z,15.43
2023-04-04T01:41:54.566Z,15.43
2023-04-04T01:44:57.723Z,15.42
2023-04-04T01:48:05.689Z,15.35
2023-04-04T01:51:08.697Z,15.36
2023-04-04T01:54:11.297Z,15.28
2023-04-04T01:57:14.102Z,15.33
2023-04-04T02:00:17.293Z,15.25
2023-04-04T02:03:20.064Z,15.23
2023-04-04T02:06:22.625Z,15.27
2023-04-04T02:09:25.212Z,15.17
2023-04-04T02:12:28.264Z,15.23
2023-04-04T02:15:31.049Z,15.21
2023-04-04T02:21:36.005Z,15.16
2023-04-04T02:24:38.352Z,15.12
2023-04-04T02:27:40.725Z,15.13
2023-04-04T02:30:43.250Z,15.10
2023-04-04T02:33:46.408Z,15.05
2023-04-04T02:36:50.670Z,15.02
2023-04-04T02:39:53.820Z,14.94
2023-04-04T02:42:57.126Z,15.00
2023-04-04T02:46:01.220Z,14.96
2023-04-04T02:49:08.172Z,15.03
2023-04-04T02:52:11.079Z,15.02
2023-04-04T02:55:17.222Z,15.00
2023-04-04T02:58:19.681Z,14.89
2023-04-04T03:01:22.078Z,14.95
2023-04-04T03:04:24.635Z,14.88
2023-04-04T03:07:27.022Z,14.90
2023-04-04T03:10:30.136Z,14.81
2023-04-04T03:13:32.815Z,14.88
2023-04-04T03:16:36.578Z,14.89
2023-04-04T03:19:38.980Z,14.88
2023-04-04T03:22:42.506Z,14.85
2023-04-04T03:25:44.946Z,14.76
2023-04-04T03:28:47.335Z,14.79
2023-04-04T03:31:50.675Z,14.80
2023-04-04T03:34:54.248Z,14.82
2023-04-04T03:37:57.638Z,14.80
2023-04-04T03:41:04.073Z,14.75
2023-04-04T03:44:06.945Z,14.75
2023-04-04T03:47:09.351Z,14.71
2023-04-04T03:50:12.568Z,14.75
2023-04-04T03:53:22.031Z,14.67
2023-04-04T03:56:24.397Z,14.73
2023-04-04T03:59:26.866Z,14.71
2023-04-04T04:02:29.342Z,14.70
2023-04-04T04:05:31.778Z,14.71
2023-04-04T04:08:34.175Z,14.71
2023-04-04T04:11:36.609Z,14.83
2023-04-04T04:14:39.034Z,15.09
2023-04-04T04:17:44.089Z,15.42
2023-04-04T04:20:47.941Z,15.69
2023-04-04T04:23:50.457Z,15.95
2023-04-04T04:26:52.847Z,16.14
2023-04-04T04:29:56.300Z,16.33
2023-04-04T04:32:59.739Z,16.58
2023-04-04T04:36:08.972Z,16.77
2023-04-04T04:39:22.411Z,16.97
2023-04-04T04:42:57.186Z,17.31
2023-04-04T04:46:00.285Z,17.52
2023-04-04T04:49:02.827Z,17.82
2023-04-04T04:52:06.821Z,18.02
2023-04-04T04:55:11.434Z,18.13
2023-04-04T04:58:22.630Z,18.37
2023-04-04T05:01:26.595Z,18.43
2023-04-04T05:04:31.108Z,18.45
2023-04-04T05:07:38.561Z,18.36
2023-04-04T05:10:42.013Z,18.45
2023-04-04T05:13:45.094Z,18.34
2023-04-04T05:16:49.046Z,18.36
2023-04-04T05:19:52.870Z,18.17
2023-04-04T05:22:57.759Z,18.11
2023-04-04T05:26:08.404Z,18.23
2023-04-04T05:29:14.081Z,18.21
2023-04-04T05:32:21.266Z,18.31
2023-04-04T05:35:31.774Z,18.35
2023-04-04T05:38:35.247Z,18.27
2023-04-04T05:41:37.837Z,18.28
2023-04-04T05:44:47.796Z,18.08
2023-04-04T05:47:50.904Z,18.11
2023-04-04T05:50:53.916Z,18.17
2023-04-04T05:54:09.821Z,18.04
2023-04-04T05:57:13.855Z,17.93
2023-04-04T06:00:24.526Z,17.97
2023-04-04T06:03:38.278Z,17.97
2023-04-04T06:06:46.312Z,17.88
2023-04-04T06:09:48.846Z,17.71
2023-04-04T06:12:51.262Z,17.67
2023-04-04T06:15:53.843Z,17.56
2023-04-04T06:18:56.846Z,17.33
2023-04-04T06:21:59.305Z,17.36
2023-04-04T06:25:02.358Z,17.52
2023-04-04T06:28:06.288Z,17.45
2023-04-04T06:31:09.230Z,17.47
2023-04-04T06:34:11.643Z,17.61
2023-04-04T06:37:27.862Z,17.68
2023-04-04T06:40:37.684Z,17.82
2023-04-04T06:43:40.684Z,17.91
2023-04-04T06:46:43.185Z,18.03
2023-04-04T06:49:45.734Z,18.19
2023-04-04T06:52:49.583Z,18.44
2023-04-04T06:55:58.121Z,18.60
2023-04-04T06:59:03.644Z,18.58
2023-04-04T07:02:06.482Z,18.82
2023-04-04T07:05:14.008Z,18.82
2023-04-04T07:08:16.359Z,18.84
2023-04-04T07:11:18.735Z,18.85
2023-04-04T07:14:25.660Z,18.83
2023-04-04T07:17:28.365Z,18.89
2023-04-04T07:20:32.569Z,18.92
2023-04-04T07:23:35.977Z,18.81
2023-04-04T07:26:38.397Z,18.90
2023-04-04T07:29:40.781Z,18.84
2023-04-04T07:32:43.221Z,18.87
2023-04-04T07:35:45.635Z,18.61
2023-04-04T07:38:48.950Z,18.66
2023-04-04T07:41:51.313Z,18.73
2023-04-04T07:44:53.772Z,18.70
2023-04-04T07:47:59.552Z,18.64
2023-04-04T07:51:05.406Z,18.39
2023-04-04T07:54:08.468Z,18.42
2023-04-04T07:57:11.167Z,18.71
2023-04-04T08:00:28.230Z,18.93
2023-04-04T08:03:32.047Z,19.30
2023-04-04T08:06:35.572Z,19.60
2023-04-04T08:09:37.985Z,19.83
2023-04-04T08:12:40.454Z,20.00
2023-04-04T08:15:44.071Z,20.02
2023-04-04T08:18:46.571Z,20.10
2023-04-04T08:21:50.526Z,20.28
2023-04-04T08:24:52.991Z,20.30
2023-04-04T08:27:55.436Z,20.42
2023-04-04T08:30:57.813Z,20.45
2023-04-04T08:34:02.186Z,20.50
2023-04-04T08:37:04.772Z,20.48
2023-04-04T08:40:07.891Z,20.49
2023-04-04T08:43:11.026Z,20.51
2023-04-04T08:46:14.673Z,20.49
2023-04-04T08:49:21.267Z,20.51
2023-04-04T08:52:25.671Z,20.56
2023-04-04T08:55:28.190Z,20.55
2023-04-04T08:58:30.862Z,20.57
2023-04-04T09:01:33.450Z,20.54
2023-04-04T09:04:36.081Z,20.61
2023-04-04T09:07:44.089Z,20.58
2023-04-04T09:10:49.845Z,20.43
2023-04-04T09:13:55.861Z,20.23
2023-04-04T09:16:58.747Z,20.13
2023-04-04T09:20:07.764Z,20.03
2023-04-04T09:23:14.532Z,19.96
2023-04-04T09:26:17.193Z,20.03
2023-04-04T09:29:22.408Z,20.07
2023-04-04T09:32:26.180Z,20.25
2023-04-04T09:35:28.888Z,20.37
2023-04-04T09:38:32.493Z,20.51
2023-04-04T09:41:35.172Z,20.68
2023-04-04T09:44:38.402Z,20.89
2023-04-04T09:47:44.331Z,20.92
2023-04-04T09:50:48.009Z,21.06
2023-04-04T09:53:51.491Z,21.06
2023-04-04T09:56:53.976Z,21.20
2023-04-04T09:59:59.052Z,21.10
2023-04-04T10:03:03.008Z,21.15
2023-04-04T10:06:07.768Z,21.16
2023-04-04T10:09:10.421Z,21.11
2023-04-04T10:12:16.336Z,21.11
2023-04-04T10:15:33.694Z,21.01
2023-04-04T10:18:37.169Z,21.01
2023-04-04T10:21:39.855Z,20.91
2023-04-04T10:24:42.317Z,20.71
2023-04-04T10:27:44.688Z,20.78
2023-04-04T10:31:23.658Z,20.69
2023-04-04T10:34:33.480Z,20.63
2023-04-04T10:37:41.535Z,20.47
2023-04-04T10:40:47.026Z,20.49
2023-04-04T10:43:51.347Z,20.44
2023-04-04T10:46:54.709Z,20.36
2023-04-04T10:49:57.252Z,20.18
2023-04-04T10:53:02.195Z,20.22
2023-04-04T10:56:04.644Z,20.23
2023-04-04T10:59:13.480Z,20.09
2023-04-04T11:02:18.350Z,20.05
2023-04-04T11:05:31.930Z,20.00
2023-04-04T11:08:37.506Z,20.13
2023-04-04T11:12:09.910Z,20.14
2023-04-04T11:15:14.664Z,20.18
2023-04-04T11:18:31.958Z,20.19
2023-04-04T11:21:35.461Z,20.15
2023-04-04T11:24:43.093Z,20.17
2023-04-04T11:27:46.547Z,20.21
2023-04-04T11:30:49.358Z,20.21
2023-04-04T11:34:07.996Z,20.20
2023-04-04T11:37:20.013Z,20.17
2023-04-04T11:40:39.750Z,20.16
2023-04-04T11:43:45.381Z,20.05
2023-04-04T11:46:49.830Z,20.09
2023-04-04T11:49:54.113Z,20.06
2023-04-04T11:52:56.471Z,19.99
2023-04-04T11:55:58.822Z,19.95
2023-04-04T12:02:09.394Z,19.74
2023-04-04T12:05:12.144Z,19.81
2023-04-04T12:08:14.770Z,19.80
2023-04-04T12:11:18.788Z,19.85
2023-04-04T12:14:23.682Z,19.93
2023-04-04T12:17:29.619Z,20.04
2023-04-04T12:20:32.371Z,20.16
2023-04-04T12:23:35.640Z,20.35
2023-04-04T12:26:46.316Z,20.51
2023-04-04T12:29:51.274Z,20.53
2023-04-04T12:32:54.436Z,20.58
2023-04-04T12:35:56.897Z,20.58
2023-04-04T12:39:05.918Z,20.64
2023-04-04T12:42:11.742Z,20.65
2023-04-04T12:45:14.115Z,20.53
2023-04-04T12:48:18.212Z,20.58
2023-04-04T12:51:20.948Z,20.48
2023-04-04T12:54:34.155Z,20.41
2023-04-04T12:57:38.966Z,20.34
2023-04-04T13:00:41.412Z,20.36
2023-04-04T13:03:43.907Z,20.28
2023-04-04T13:06:50.095Z,20.24
2023-04-04T13:09:58.263Z,20.24
2023-04-04T13:13:02.572Z,20.20
2023-04-04T13:16:08.025Z,20.14
2023-04-04T13:19:10.813Z,20.14
2023-04-04T13:22:13.568Z,20.16
2023-04-04T13:25:16.234Z,20.12
2023-04-04T13:28:18.656Z,19.96
2023-04-04T13:31:21.714Z,19.96
2023-04-04T13:34:24.336Z,19.86
2023-04-04T13:37:26.768Z,19.83
2023-04-04T13:40:29.190Z,19.84
2023-04-04T13:43:31.610Z,19.86
2023-04-04T13:46:34.194Z,19.76
2023-04-04T13:49:36.678Z,19.77
2023-04-04T13:52:39.156Z,19.72
2023-04-04T13:55:56.928Z,19.68
2023-04-04T13:59:03.787Z,19.59
2023-04-04T14:02:06.230Z,19.54
2023-04-04T14:05:08.912Z,19.47
2023-04-04T14:08:11.307Z,19.40
2023-04-04T14:11:14.595Z,19.35
2023-04-04T14:14:24.332Z,19.37
2023-04-04T14:17:27.330Z,19.32
2023-04-04T14:20:29.752Z,19.28
2023-04-04T14:23:32.163Z,19.26
2023-04-04T14:26:35.145Z,19.16
2023-04-04T14:29:37.513Z,19.07
2023-04-04T14:32:39.918Z,19.22
2023-04-04T14:35:42.606Z,19.23
2023-04-04T14:38:45.250Z,19.30
2023-04-04T14:41:47.830Z,19.39
2023-04-04T14:44:50.229Z,19.50
2023-04-04T14:47:52.692Z,19.68
2023-04-04T14:50:55.085Z,19.83
2023-04-04T14:53:57.445Z,20.00
2023-04-04T14:56:59.896Z,20.19
2023-04-04T15:00:02.336Z,20.29
2023-04-04T15:03:07.330Z,20.37
2023-04-04T15:06:09.775Z,20.42
2023-04-04T15:09:12.194Z,20.32
2023-04-04T15:12:14.592Z,20.40
2023-04-04T15:15:17.252Z,20.32
2023-04-04T15:18:19.685Z,20.33
2023-04-04T15:21:22.063Z,20.24
2023-04-04T15:24:24.426Z,20.20
2023-04-04T15:27:27.069Z,20.18
2023-04-04T15:30:29.925Z,20.18
2023-04-04T15:33:32.834Z,20.10
2023-04-04T15:36:36.466Z,20.05
2023-04-04T15:39:49.699Z,20.05
2023-04-04T15:42:57.003Z,19.89
2023-04-04T15:45:59.412Z,19.92
2023-04-04T15:49:01.861Z,19.91
2023-04-04T15:52:04.339Z,19.82
2023-04-04T15:55:12.400Z,19.75
2023-04-04T15:58:14.786Z,19.72
2023-04-04T16:01:17.394Z,19.53
2023-04-04T16:04:19.794Z,19.55
2023-04-04T16:07:22.124Z,19.49
2023-04-04T16:10:24.474Z,19.40
2023-04-04T16:13:27.641Z,19.32
2023-04-04T16:16:30.060Z,19.22
2023-04-04T16:19:32.527Z,19.19
2023-04-04T16:22:34.887Z,19.12
2023-04-04T16:25:37.466Z,19.05
2023-04-04T16:28:40.360Z,18.92
2023-04-04T16:31:42.802Z,18.93
2023-04-04T16:34:45.379Z,18.82
2023-04-04T16:37:47.769Z,18.70
2023-04-04T16:40:50.160Z,18.68
2023-04-04T16:43:52.938Z,18.64
2023-04-04T16:46:55.536Z,18.60
2023-04-04T16:49:58.673Z,18.61
2023-04-04T16:53:01.285Z,18.57
2023-04-04T16:56:03.792Z,18.38
2023-04-04T16:59:07.069Z,18.39
2023-04-04T17:02:09.689Z,18.30
2023-04-04T17:05:13.580Z,18.26
2023-04-04T17:08:15.908Z,18.18
2023-04-04T17:11:18.387Z,18.12
2023-04-04T17:14:21.450Z,18.07
2023-04-04T17:17:23.758Z,17.98
2023-04-04T17:20:28.240Z,17.89
2023-04-04T17:23:32.084Z,17.85
2023-04-04T17:26:34.479Z,17.74
2023-04-04T17:29:37.388Z,17.71
2023-04-04T17:32:39.869Z,17.70
2023-04-04T17:35:42.695Z,17.66
2023-04-04T17:38:45.098Z,17.62
2023-04-04T17:41:47.974Z,17.58
2023-04-04T17:44:50.452Z,17.48
2023-04-04T17:47:53.020Z,17.47
2023-04-04T17:50:55.546Z,17.44
2023-04-04T17:53:57.884Z,17.34
2023-04-04T17:57:00.423Z,17.32
2023-04-04T18:00:03.556Z,17.30
2023-04-04T18:03:11.951Z,17.23
2023-04-04T18:06:15.241Z,17.23
2023-04-04T18:09:18.505Z,17.19
2023-04-04T18:12:21.130Z,17.16
2023-04-04T18:15:26.333Z,17.08
2023-04-04T18:18:29.320Z,17.07
2023-04-04T18:21:31.867Z,17.06
2023-04-04T18:24:34.256Z,17.01
2023-04-04T18:27:37.035Z,16.92
2023-04-04T18:30:39.610Z,16.90
2023-04-04T18:33:42.286Z,16.92
2023-04-04T18:36:45.798Z,16.86
2023-04-04T18:39:49.244Z,16.87
2023-04-04T18:42:52.308Z,16.81
2023-04-04T18:45:55.200Z,16.81
2023-04-04T18:48:57.635Z,16.76
2023-04-04T18:52:00.493Z,16.74
2023-04-04T18:55:04.616Z,16.68
2023-04-04T18:58:07.182Z,16.70
2023-04-04T19:01:11.507Z,16.71
2023-04-04T19:04:19.263Z,16.64
2023-04-04T19:07:24.678Z,16.62
2023-04-04T19:10:27.327Z,16.65
2023-04-04T19:13:30.013Z,16.62
2023-04-04T19:16:32.467Z,16.60
2023-04-04T19:19:34.901Z,16.55
2023-04-04T19:22:37.507Z,16.48
2023-04-04T19:25:40.331Z,16.51
2023-04-04T19:28:44.604Z,16.45
2023-04-04T19:31:49.957Z,16.41
2023-04-04T19:34:52.538Z,16.39
2023-04-04T19:37:55.070Z,16.43
2023-04-04T19:41:02.462Z,16.40
2023-04-04T19:44:06.609Z,16.37
2023-04-04T19:47:13.424Z,16.34
2023-04-04T19:50:35.993Z,16.19
2023-04-04T19:53:38.580Z,16.26
2023-04-04T19:56:41.538Z,16.29
2023-04-04T19:59:46.892Z,16.26
2023-04-04T20:02:51.412Z,16.18
2023-04-04T20:05:57.276Z,16.22
2023-04-04T20:09:03.500Z,16.17
2023-04-04T20:12:07.291Z,16.11
2023-04-04T20:15:14.425Z,16.06
2023-04-04T20:18:31.580Z,16.07
2023-04-04T20:21:35.803Z,16.10
2023-04-04T20:24:39.615Z,16.00
2023-04-04T20:27:42.095Z,16.03
2023-04-04T20:30:44.613Z,16.02
2023-04-04T20:33:47.290Z,15.99
2023-04-04T20:36:49.611Z,15.98
2023-04-04T20:39:56.127Z,15.95
2023-04-04T20:42:58.509Z,15.94
2023-04-04T20:46:00.907Z,15.84
2023-04-04T20:49:04.602Z,15.86
2023-04-04T20:52:07.036Z,15.86
2023-04-04T20:55:09.401Z,15.82
2023-04-04T20:58:31.595Z,15.82
2023-04-04T21:01:34.228Z,15.84
2023-04-04T21:04:37.182Z,15.80
2023-04-04T21:07:41.813Z,15.74
2023-04-04T21:10:54.904Z,15.79
2023-04-04T21:13:57.328Z,15.73
2023-04-04T21:16:59.688Z,15.72
2023-04-04T21:20:02.368Z,15.69
2023-04-04T21:23:06.302Z,15.68
2023-04-04T21:26:11.892Z,15.70
2023-04-04T21:29:21.341Z,15.68
2023-04-04T21:32:24.206Z,15.64
2023-04-04T21:35:49.886Z,15.63
2023-04-04T21:38:53.716Z,15.61
2023-04-04T21:42:05.970Z,15.63
2023-04-04T21:45:11.031Z,15.54
2023-04-04T21:48:13.565Z,15.53
2023-04-04T21:51:16.127Z,15.57
2023-04-04T21:54:19.554Z,15.55
2023-04-04T21:57:21.942Z,15.53
2023-04-04T22:00:24.435Z,15.54
2023-04-04T22:03:26.775Z,15.49
2023-04-04T22:06:30.846Z,15.47
2023-04-04T22:09:33.151Z,15.49
2023-04-04T22:12:40.096Z,15.47
2023-04-04T22:15:44.003Z,15.42
2023-04-04T22:18:48.002Z,15.46
2023-04-04T22:21:50.341Z,15.44
2023-04-04T22:24:52.670Z,15.41
2023-04-04T22:27:55.052Z,15.41
2023-04-04T22:30:57.393Z,15.39
2023-04-04T22:33:59.807Z,15.39
2023-04-04T22:37:03.639Z,15.36
2023-04-04T22:40:09.965Z,15.38
2023-04-04T22:43:12.387Z,15.36
2023-04-04T22:46:14.779Z,15.31
2023-04-04T22:49:17.632Z,15.32
2023-04-04T22:52:22.720Z,15.27
2023-04-04T22:55:26.635Z,15.29
2023-04-04T22:58:28.965Z,15.19
2023-04-04T23:01:31.593Z,15.27
2023-04-04T23:04:34.021Z,15.25
2023-04-04T23:07:37.577Z,15.21
2023-04-04T23:10:40.153Z,15.11
2023-04-04T23:13:43.363Z,15.20
2023-04-04T23:16:46.387Z,15.19
2023-04-04T23:19:48.743Z,15.16
2023-04-04T23:22:51.474Z,15.09
2023-04-04T23:25:54.714Z,15.13
2023-04-04T23:28:57.221Z,15.12
2023-04-04T23:31:59.607Z,15.04
2023-04-04T23:35:02.153Z,15.02
2023-04-04T23:38:04.512Z,15.04
2023-04-04T23:41:07.572Z,14.97
2023-04-04T23:44:09.942Z,15.00
2023-04-04T23:47:12.542Z,14.96
2023-04-04T23:50:14.915Z,14.90
2023-04-04T23:53:17.302Z,15.01
2023-04-04T23:56:19.722Z,14.93
2023-04-04T23:59:22.351Z,14.98
